createdAt,value
2018-04-19T00:02:25.864Z,96172.81
2018-04-19T00:04:53.845Z,96170.07
2018-04-19T00:07:20.992Z,96172.40
2018-04-19T00:09:48.097Z,96168.94
2018-04-19T00:12:16.004Z,96165.58
2018-04-19T00:14:42.998Z,96164.33
2018-04-19T00:17:09.957Z,96162.52
2018-04-19T00:19:37.514Z,96170.52
2018-04-19T00:22:05.747Z,96173.16
2018-04-19T00:24:32.323Z,96168.88
2018-04-19T00:27:00.023Z,96173.70
2018-04-19T00:29:28.660Z,96176.42
2018-04-19T00:31:55.606Z,96176.78
2018-04-19T00:34:22.495Z,96180.45
2018-04-19T00:36:49.520Z,96175.94
2018-04-19T00:39:18.063Z,96178.81
2018-04-19T00:41:46.243Z,96180.02
2018-04-19T00:44:13.406Z,96175.09
2018-04-19T00:46:40.558Z,96183.81
2018-04-19T00:49:07.341Z,96178.38
2018-04-19T00:51:35.967Z,96182.92
2018-04-19T00:54:03.394Z,96184.05
2018-04-19T00:56:31.049Z,96181.14
2018-04-19T00:58:58.092Z,96184.20
2018-04-19T01:01:25.217Z,96188.58
2018-04-19T01:03:52.057Z,96189.97
2018-04-19T01:06:20.637Z,96183.16
2018-04-19T01:08:48.984Z,96189.31
2018-04-19T01:11:16.713Z,96183.50
2018-04-19T01:13:43.898Z,96179.75
2018-04-19T01:16:10.694Z,96183.53
2018-04-19T01:18:38.043Z,96181.90
2018-04-19T01:21:07.410Z,96185.55
2018-04-19T01:23:34.587Z,96185.78
2018-04-19T01:26:02.260Z,96182.17
2018-04-19T01:28:30.449Z,96183.61
2018-04-19T01:33:32.727Z,96185.09
2018-04-19T01:36:12.143Z,96187.79
2018-04-19T01:38:40.673Z,96179.95
2018-04-19T01:41:08.073Z,96178.75
2018-04-19T01:43:35.599Z,96181.59
2018-04-19T01:46:02.772Z,96175.13
2018-04-19T01:48:29.887Z,96171.70
2018-04-19T01:50:57.245Z,96172.94
2018-04-19T01:53:24.934Z,96177.15
2018-04-19T01:55:51.949Z,96173.08
2018-04-19T01:58:20.905Z,96172.25
2018-04-19T02:00:51.597Z,96173.38
2018-04-19T02:03:19.437Z,96172.59
2018-04-19T02:05:46.492Z,96172.92
2018-04-19T02:08:13.308Z,96172.81
2018-04-19T02:10:40.732Z,96176.02
2018-04-19T02:13:07.871Z,96181.17
2018-04-19T02:18:09.122Z,96178.72
2018-04-19T02:20:36.411Z,96177.37
2018-04-19T02:23:04.261Z,96182.71
2018-04-19T02:25:31.508Z,96181.31
2018-04-19T02:27:58.467Z,96182.30
2018-04-19T02:30:26.491Z,96182.22
2018-04-19T02:32:53.881Z,96175.59
2018-04-19T02:35:20.708Z,96178.31
2018-04-19T02:37:47.622Z,96178.92
2018-04-19T02:40:15.258Z,96179.36
2018-04-19T02:42:43.169Z,96174.97
2018-04-19T02:45:11.222Z,96168.22
2018-04-19T02:47:38.678Z,96169.36
2018-04-19T02:50:07.055Z,96169.27
2018-04-19T02:52:34.607Z,96168.67
2018-04-19T02:55:02.318Z,96165.70
2018-04-19T02:57:29.741Z,96164.89
2018-04-19T02:59:58.198Z,96167.84
2018-04-19T03:02:25.762Z,96166.18
2018-04-19T03:04:53.111Z,96167.98
2018-04-19T03:07:20.529Z,96163.55
2018-04-19T03:09:47.295Z,96159.73
2018-04-19T03:12:14.186Z,96163.48
2018-04-19T03:14:41.201Z,96159.73
2018-04-19T03:17:09.037Z,96152.42
2018-04-19T03:19:37.972Z,96159.15
2018-04-19T03:22:05.823Z,96165.27
2018-04-19T03:24:32.929Z,96178.72
2018-04-19T03:27:00.103Z,96181.83
2018-04-19T03:29:27.692Z,96177.25
2018-04-19T03:31:55.784Z,96179.47
2018-04-19T03:34:25.569Z,96176.48
2018-04-19T03:36:52.606Z,96166.09
2018-04-19T03:39:20.126Z,96180.98
2018-04-19T03:41:47.452Z,96179.61
2018-04-19T03:44:15.525Z,96177.88
2018-04-19T03:46:42.874Z,96174.42
2018-04-19T03:49:10.557Z,96178.98
2018-04-19T03:51:37.435Z,96177.56
2018-04-19T03:54:04.323Z,96181.63
2018-04-19T03:56:31.384Z,96174.51
2018-04-19T03:58:59.025Z,96181.44
2018-04-19T04:03:59.695Z,96178.45
2018-04-19T04:06:26.783Z,96167.28
2018-04-19T04:08:54.359Z,96167.60
2018-04-19T04:11:22.598Z,96175.56
2018-04-19T04:16:44.342Z,96176.89
2018-04-19T04:19:23.794Z,96183.61
2018-04-19T04:22:03.243Z,96189.48
2018-04-19T04:24:30.211Z,96195.25
2018-04-19T04:26:57.717Z,96197.86
2018-04-19T04:29:25.087Z,96196.31
2018-04-19T04:31:52.421Z,96207.40
2018-04-19T04:34:19.444Z,96199.43
2018-04-19T04:36:45.932Z,96205.17
2018-04-19T04:39:13.586Z,96207.49
2018-04-19T04:41:40.248Z,96207.52
2018-04-19T04:44:07.616Z,96200.29
2018-04-19T04:49:34.105Z,96192.42
2018-04-19T04:52:00.940Z,96203.09
2018-04-19T04:54:27.753Z,96199.97
2018-04-19T04:56:55.509Z,96190.81
2018-04-19T04:59:22.480Z,96196.63
2018-04-19T05:01:49.822Z,96199.20
2018-04-19T05:04:16.516Z,96200.50
2018-04-19T05:06:44.400Z,96202.16
2018-04-19T05:09:11.391Z,96208.31
2018-04-19T05:11:38.610Z,96191.88
2018-04-19T05:14:05.867Z,96197.08
2018-04-19T05:16:33.742Z,96196.06
2018-04-19T05:19:01.325Z,96190.27
2018-04-19T05:21:28.790Z,96195.35
2018-04-19T05:23:56.649Z,96189.23
2018-04-19T05:26:24.077Z,96193.89
2018-04-19T05:28:51.378Z,96190.58
2018-04-19T05:31:18.749Z,96195.42
2018-04-19T05:33:46.268Z,96193.58
2018-04-19T05:36:13.295Z,96189.41
2018-04-19T05:38:41.087Z,96195.73
2018-04-19T05:41:08.535Z,96191.97
2018-04-19T05:43:36.151Z,96192.55
2018-04-19T05:46:03.026Z,96197.23
2018-04-19T05:48:30.153Z,96198.52
2018-04-19T05:50:57.480Z,96200.04
2018-04-19T05:53:25.540Z,96193.99
2018-04-19T05:55:52.752Z,96182.91
2018-04-19T05:58:19.717Z,96187.55
2018-04-19T06:00:47.414Z,96177.25
2018-04-19T06:03:14.938Z,96189.58
2018-04-19T06:05:42.062Z,96193.35
2018-04-19T06:08:10.008Z,96195.10
2018-04-19T06:10:37.273Z,96185.88
2018-04-19T06:13:04.138Z,96193.71
2018-04-19T06:15:33.347Z,96190.41
2018-04-19T06:18:00.291Z,96187.28
2018-04-19T06:20:27.182Z,96189.50
2018-04-19T06:22:54.798Z,96185.30
2018-04-19T06:25:21.806Z,96187.23
2018-04-19T06:27:48.572Z,96183.44
2018-04-19T06:30:15.133Z,96196.44
2018-04-19T06:32:42.026Z,96203.65
2018-04-19T06:35:10.374Z,96203.76
2018-04-19T06:37:37.352Z,96197.79
2018-04-19T06:40:05.430Z,96192.23
2018-04-19T06:42:32.983Z,96191.45
2018-04-19T06:45:00.737Z,96198.34
2018-04-19T06:47:27.850Z,96197.47
2018-04-19T06:49:54.769Z,96202.67
2018-04-19T06:52:22.221Z,96198.79
2018-04-19T06:54:50.015Z,96199.34
2018-04-19T06:57:16.707Z,96198.71
2018-04-19T06:59:44.858Z,96206.70
2018-04-19T07:02:11.911Z,96190.96
2018-04-19T07:04:38.651Z,96188.84
2018-04-19T07:07:05.808Z,96204.25
2018-04-19T07:09:32.592Z,96203.96
2018-04-19T07:11:59.462Z,96189.55
2018-04-19T07:14:26.866Z,96192.30
2018-04-19T07:16:53.540Z,96193.16
2018-04-19T07:19:20.417Z,96197.69
2018-04-19T07:21:48.425Z,96186.56
2018-04-19T07:24:16.318Z,96197.70
2018-04-19T07:26:43.709Z,96196.23
2018-04-19T07:29:11.173Z,96190.45
2018-04-19T07:31:38.767Z,96193.03
2018-04-19T07:34:06.180Z,96195.33
2018-04-19T07:36:33.402Z,96188.66
2018-04-19T07:39:00.894Z,96183.61
2018-04-19T07:41:27.976Z,96169.70
2018-04-19T07:43:56.508Z,96172.97
2018-04-19T07:46:23.515Z,96179.30
2018-04-19T07:48:51.359Z,96178.88
2018-04-19T07:51:18.760Z,96180.97
2018-04-19T07:53:46.550Z,96178.73
2018-04-19T07:56:13.529Z,96166.87
2018-04-19T07:58:40.804Z,96179.52
2018-04-19T08:01:08.125Z,96160.47
2018-04-19T08:03:35.020Z,96168.46
2018-04-19T08:06:02.005Z,96161.23
2018-04-19T08:08:28.986Z,96163.83
2018-04-19T08:10:56.162Z,96172.97
2018-04-19T08:13:23.450Z,96165.08
2018-04-19T08:15:50.390Z,96160.41
2018-04-19T08:18:17.540Z,96166.91
2018-04-19T08:20:44.403Z,96160.31
2018-04-19T08:23:11.357Z,96159.31
2018-04-19T08:25:38.843Z,96150.21
2018-04-19T08:28:05.833Z,96150.83
2018-04-19T08:30:32.645Z,96143.84
2018-04-19T08:32:59.876Z,96144.81
2018-04-19T08:35:26.748Z,96150.45
2018-04-19T08:37:53.883Z,96139.52
2018-04-19T08:40:21.149Z,96147.38
2018-04-19T08:42:48.934Z,96140.70
2018-04-19T08:45:16.172Z,96139.47
2018-04-19T08:47:43.285Z,96129.32
2018-04-19T08:50:17.112Z,96131.56
2018-04-19T08:52:44.301Z,96131.08
2018-04-19T08:55:11.485Z,96128.30
2018-04-19T08:57:38.901Z,96116.02
2018-04-19T09:00:06.695Z,96115.08
2018-04-19T09:02:34.696Z,96118.64
2018-04-19T09:05:01.529Z,96118.25
2018-04-19T09:07:28.488Z,96113.00
2018-04-19T09:09:55.883Z,96110.50
2018-04-19T09:12:23.805Z,96116.31
2018-04-19T09:14:51.078Z,96107.19
2018-04-19T09:17:19.427Z,96104.55
2018-04-19T09:19:46.782Z,96103.90
2018-04-19T09:22:13.644Z,96096.96
2018-04-19T09:24:40.331Z,96087.00
2018-04-19T09:27:07.466Z,96088.88
2018-04-19T09:29:34.411Z,96092.23
2018-04-19T09:32:02.606Z,96095.56
2018-04-19T09:34:31.244Z,96085.41
2018-04-19T09:36:58.672Z,96079.90
2018-04-19T09:39:25.870Z,96083.80
2018-04-19T09:41:52.499Z,96077.98
2018-04-19T09:44:21.417Z,96074.83
2018-04-19T09:46:48.085Z,96076.52
2018-04-19T09:49:15.402Z,96065.17
2018-04-19T09:51:42.718Z,96066.80
2018-04-19T09:54:10.763Z,96062.34
2018-04-19T09:56:38.741Z,96066.77
2018-04-19T09:59:11.238Z,96071.05
2018-04-19T10:01:44.140Z,96055.22
2018-04-19T10:04:13.576Z,96047.86
2018-04-19T10:06:40.621Z,96045.94
2018-04-19T10:09:07.356Z,96040.61
2018-04-19T10:11:34.469Z,96039.29
2018-04-19T10:14:01.443Z,96034.20
2018-04-19T10:16:28.564Z,96031.88
2018-04-19T10:18:55.713Z,96031.11
2018-04-19T10:21:22.836Z,96023.50
2018-04-19T10:23:49.567Z,96025.45
2018-04-19T10:26:16.549Z,96018.11
2018-04-19T10:28:43.445Z,96019.23
2018-04-19T10:31:11.313Z,96015.63
2018-04-19T10:33:39.961Z,96016.25
2018-04-19T10:36:06.844Z,96001.08
2018-04-19T10:38:35.343Z,95999.64
2018-04-19T10:41:02.812Z,95997.91
2018-04-19T10:43:29.518Z,95990.20
2018-04-19T10:45:56.141Z,95987.15
2018-04-19T10:48:22.596Z,95976.63
2018-04-19T10:50:49.728Z,95976.17
2018-04-19T10:53:17.156Z,95968.56
2018-04-19T10:55:43.787Z,95968.72
2018-04-19T10:58:10.945Z,95966.94
2018-04-19T11:00:38.532Z,95969.41
2018-04-19T11:03:05.576Z,95967.80
2018-04-19T11:05:32.891Z,95965.94
2018-04-19T11:07:59.672Z,95964.77
2018-04-19T11:10:26.966Z,95958.29
2018-04-19T11:12:53.574Z,95956.94
2018-04-19T11:15:20.433Z,95945.67
2018-04-19T11:17:47.694Z,95947.48
2018-04-19T11:20:14.242Z,95943.90
2018-04-19T11:22:41.135Z,95939.79
2018-04-19T11:25:07.930Z,95939.11
2018-04-19T11:27:36.428Z,95932.52
2018-04-19T11:30:03.416Z,95926.26
2018-04-19T11:32:30.269Z,95920.84
2018-04-19T11:34:56.955Z,95918.64
2018-04-19T11:37:24.405Z,95922.55
2018-04-19T11:39:50.965Z,95915.17
2018-04-19T11:42:18.072Z,95906.30
2018-04-19T11:44:45.285Z,95902.47
2018-04-19T11:47:12.060Z,95901.23
2018-04-19T11:49:39.020Z,95896.16
2018-04-19T11:52:06.465Z,95894.05
2018-04-19T11:54:35.193Z,95879.84
2018-04-19T11:57:02.328Z,95888.28
2018-04-19T11:59:29.498Z,95885.47
2018-04-19T12:01:56.537Z,95896.31
2018-04-19T12:04:23.311Z,95882.08
2018-04-19T12:06:50.050Z,95878.02
2018-04-19T12:09:17.263Z,95873.55
2018-04-19T12:11:44.559Z,95873.34
2018-04-19T12:14:11.171Z,95869.37
2018-04-19T12:16:37.992Z,95867.03
2018-04-19T12:19:05.121Z,95857.32
2018-04-19T12:21:31.664Z,95853.19
2018-04-19T12:23:59.328Z,95858.41
2018-04-19T12:26:26.736Z,95858.67
2018-04-19T12:28:54.040Z,95848.19
2018-04-19T12:31:20.874Z,95848.64
2018-04-19T12:33:47.643Z,95834.09
2018-04-19T12:36:15.113Z,95826.78
2018-04-19T12:38:41.652Z,95819.02
2018-04-19T12:41:08.687Z,95823.23
2018-04-19T12:43:35.984Z,95816.09
2018-04-19T12:46:02.777Z,95812.52
2018-04-19T12:48:29.353Z,95804.59
2018-04-19T12:50:56.644Z,95806.70
2018-04-19T12:53:23.706Z,95805.17
2018-04-19T12:55:50.442Z,95803.94
2018-04-19T12:58:18.125Z,95802.59
2018-04-19T13:00:44.917Z,95793.48
2018-04-19T13:03:12.005Z,95782.80
2018-04-19T13:05:39.715Z,95786.27
2018-04-19T13:08:06.687Z,95784.10
2018-04-19T13:10:34.051Z,95774.80
2018-04-19T13:13:00.455Z,95771.13
2018-04-19T13:15:27.157Z,95773.08
2018-04-19T13:17:54.365Z,95776.86
2018-04-19T13:20:22.110Z,95776.61
2018-04-19T13:22:49.024Z,95765.70
2018-04-19T13:25:15.841Z,95763.92
2018-04-19T13:27:42.438Z,95744.94
2018-04-19T13:30:09.669Z,95752.94
2018-04-19T13:32:36.581Z,95752.81
2018-04-19T13:35:03.559Z,95736.80
2018-04-19T13:37:30.953Z,95749.47
2018-04-19T13:39:57.796Z,95736.91
2018-04-19T13:42:24.636Z,95733.65
2018-04-19T13:44:51.377Z,95741.44
2018-04-19T13:47:17.916Z,95717.52
2018-04-19T13:49:44.336Z,95735.48
2018-04-19T13:52:11.593Z,95736.50
2018-04-19T13:54:38.685Z,95728.33
2018-04-19T13:57:05.644Z,95723.29
2018-04-19T13:59:32.328Z,95706.89
2018-04-19T14:01:58.829Z,95726.36
2018-04-19T14:04:25.621Z,95717.80
2018-04-19T14:06:52.968Z,95735.86
2018-04-19T14:09:20.216Z,95724.03
2018-04-19T14:11:46.991Z,95713.09
2018-04-19T14:14:13.937Z,95720.57
2018-04-19T14:16:40.991Z,95727.75
2018-04-19T14:19:08.025Z,95714.70
2018-04-19T14:21:35.517Z,95720.83
2018-04-19T14:24:02.492Z,95707.44
2018-04-19T14:26:29.152Z,95694.83
2018-04-19T14:28:56.184Z,95710.92
2018-04-19T14:31:25.433Z,95677.26
2018-04-19T14:33:52.869Z,95692.55
2018-04-19T14:36:19.717Z,95711.51
2018-04-19T14:38:46.539Z,95679.70
2018-04-19T14:41:13.409Z,95689.59
2018-04-19T14:43:40.345Z,95678.82
2018-04-19T14:46:07.170Z,95687.48
2018-04-19T14:48:34.918Z,95691.14
2018-04-19T14:51:02.284Z,95699.55
2018-04-19T14:53:29.372Z,95688.89
2018-04-19T14:55:56.533Z,95693.34
2018-04-19T14:58:23.771Z,95708.25
2018-04-19T15:00:51.054Z,95699.03
2018-04-19T15:03:17.644Z,95702.05
2018-04-19T15:05:44.110Z,95696.65
2018-04-19T15:08:10.851Z,95699.41
2018-04-19T15:10:37.407Z,95690.74
2018-04-19T15:13:04.429Z,95684.52
2018-04-19T15:15:31.463Z,95671.11
2018-04-19T15:17:58.002Z,95674.04
2018-04-19T15:20:24.882Z,95673.38
2018-04-19T15:22:51.494Z,95677.95
2018-04-19T15:25:18.338Z,95683.15
2018-04-19T15:27:46.927Z,95691.34
2018-04-19T15:30:14.487Z,95686.43
2018-04-19T15:32:41.552Z,95685.62
2018-04-19T15:35:08.550Z,95682.88
2018-04-19T15:37:35.414Z,95674.95
2018-04-19T15:40:02.142Z,95673.45
2018-04-19T15:42:28.783Z,95668.52
2018-04-19T15:44:55.979Z,95653.85
2018-04-19T15:47:22.828Z,95670.92
2018-04-19T15:49:49.556Z,95672.29
2018-04-19T15:52:16.196Z,95683.17
2018-04-19T15:54:42.960Z,95669.52
2018-04-19T15:57:10.158Z,95659.62
2018-04-19T15:59:37.086Z,95657.91
2018-04-19T16:02:03.628Z,95657.89
2018-04-19T16:04:32.577Z,95672.27
2018-04-19T16:06:59.256Z,95666.63
2018-04-19T16:09:25.904Z,95668.05
2018-04-19T16:11:53.083Z,95658.95
2018-04-19T16:14:19.196Z,95646.12
2018-04-19T16:16:46.075Z,95663.09
2018-04-19T16:19:12.508Z,95650.63
2018-04-19T16:21:39.483Z,95647.19
2018-04-19T16:24:06.195Z,95643.11
2018-04-19T16:26:33.171Z,95650.45
2018-04-19T16:29:00.267Z,95651.39
2018-04-19T16:31:27.472Z,95648.40
2018-04-19T16:33:55.131Z,95649.03
2018-04-19T16:36:21.906Z,95649.45
2018-04-19T16:38:48.613Z,95638.56
2018-04-19T16:41:15.727Z,95644.91
2018-04-19T16:43:43.766Z,95637.81
2018-04-19T16:46:10.687Z,95646.37
2018-04-19T16:48:41.609Z,95637.07
2018-04-19T16:51:08.550Z,95628.11
2018-04-19T16:53:35.749Z,95640.56
2018-04-19T16:56:02.643Z,95634.19
2018-04-19T16:58:29.319Z,95648.52
2018-04-19T17:00:56.369Z,95647.05
2018-04-19T17:03:23.393Z,95645.09
2018-04-19T17:05:50.187Z,95640.51
2018-04-19T17:08:17.210Z,95645.17
2018-04-19T17:10:43.991Z,95644.61
2018-04-19T17:13:10.860Z,95642.77
2018-04-19T17:15:38.582Z,95644.66
2018-04-19T17:18:06.104Z,95646.75
2018-04-19T17:20:33.129Z,95644.86
2018-04-19T17:22:59.867Z,95637.56
2018-04-19T17:25:26.683Z,95644.23
2018-04-19T17:27:53.212Z,95636.63
2018-04-19T17:30:20.184Z,95647.11
2018-04-19T17:32:47.465Z,95649.73
2018-04-19T17:35:14.948Z,95656.84
2018-04-19T17:37:42.490Z,95656.81
2018-04-19T17:40:09.670Z,95662.99
2018-04-19T17:42:37.737Z,95659.02
2018-04-19T17:45:04.528Z,95666.28
2018-04-19T17:47:31.898Z,95667.67
2018-04-19T17:49:59.263Z,95668.19
2018-04-19T17:52:26.324Z,95664.08
2018-04-19T17:54:54.228Z,95668.66
2018-04-19T17:57:22.753Z,95675.08
2018-04-19T17:59:49.698Z,95678.57
2018-04-19T18:02:16.750Z,95679.63
2018-04-19T18:04:44.786Z,95678.84
2018-04-19T18:07:11.950Z,95679.31
2018-04-19T18:09:38.619Z,95686.68
2018-04-19T18:12:05.842Z,95683.55
2018-04-19T18:14:33.340Z,95689.19
2018-04-19T18:17:00.155Z,95688.67
2018-04-19T18:19:27.356Z,95685.02
2018-04-19T18:21:54.460Z,95687.77
2018-04-19T18:24:21.854Z,95693.87
2018-04-19T18:26:48.755Z,95698.08
2018-04-19T18:29:15.804Z,95689.45
2018-04-19T18:31:43.654Z,95693.75
2018-04-19T18:34:11.567Z,95697.73
2018-04-19T18:36:38.297Z,95692.55
2018-04-19T18:39:06.226Z,95685.50
2018-04-19T18:41:32.982Z,95689.09
2018-04-19T18:44:00.016Z,95693.09
2018-04-19T18:46:27.585Z,95693.28
2018-04-19T18:48:54.496Z,95692.54
2018-04-19T18:51:21.447Z,95689.48
2018-04-19T18:53:48.082Z,95692.65
2018-04-19T18:56:15.202Z,95698.59
2018-04-19T18:58:42.902Z,95689.66
2018-04-19T19:01:09.592Z,95690.05
2018-04-19T19:03:36.599Z,95686.03
2018-04-19T19:06:03.784Z,95691.83
2018-04-19T19:08:30.477Z,95697.12
2018-04-19T19:10:57.508Z,95688.82
2018-04-19T19:13:25.383Z,95692.53
2018-04-19T19:18:58.057Z,95683.49
2018-04-19T19:21:28.924Z,95684.51
2018-04-19T19:23:56.877Z,95681.91
2018-04-19T19:26:23.692Z,95681.66
2018-04-19T19:28:51.591Z,95684.14
2018-04-19T19:31:18.314Z,95675.70
2018-04-19T19:33:44.937Z,95672.72
2018-04-19T19:36:12.276Z,95677.73
2018-04-19T19:38:39.301Z,95667.17
2018-04-19T19:41:07.124Z,95671.64
2018-04-19T19:43:34.224Z,95670.33
2018-04-19T19:46:01.348Z,95664.63
2018-04-19T19:48:28.885Z,95667.53
2018-04-19T19:50:56.548Z,95654.39
2018-04-19T19:53:23.288Z,95653.38
2018-04-19T19:55:50.427Z,95647.59
2018-04-19T19:58:17.623Z,95655.61
2018-04-19T20:00:44.815Z,95653.97
2018-04-19T20:03:11.985Z,95648.13
2018-04-19T20:05:39.990Z,95652.25
2018-04-19T20:08:06.876Z,95653.33
2018-04-19T20:10:33.672Z,95650.90
2018-04-19T20:13:02.139Z,95658.12
2018-04-19T20:15:28.697Z,95658.31
2018-04-19T20:17:55.229Z,95657.58
2018-04-19T20:20:22.079Z,95659.23
2018-04-19T20:22:49.783Z,95659.33
2018-04-19T20:25:16.380Z,95649.92
2018-04-19T20:27:43.341Z,95651.13
2018-04-19T20:30:10.941Z,95657.16
2018-04-19T20:32:38.124Z,95652.91
2018-04-19T20:35:05.898Z,95649.99
2018-04-19T20:37:34.579Z,95655.08
2018-04-19T20:40:01.245Z,95658.56
2018-04-19T20:42:27.879Z,95653.66
2018-04-19T20:44:54.765Z,95653.70
2018-04-19T20:47:22.058Z,95658.34
2018-04-19T20:49:49.033Z,95655.29
2018-04-19T20:52:16.647Z,95652.27
2018-04-19T20:54:43.507Z,95645.73
2018-04-19T20:57:10.966Z,95653.28
2018-04-19T20:59:38.174Z,95652.39
2018-04-19T21:02:04.889Z,95649.44
2018-04-19T21:04:31.696Z,95654.84
2018-04-19T21:06:59.806Z,95648.42
2018-04-19T21:09:27.560Z,95648.59
2018-04-19T21:11:54.744Z,95645.44
2018-04-19T21:14:22.216Z,95656.63
2018-04-19T21:16:49.834Z,95651.48
2018-04-19T21:19:17.322Z,95652.38
2018-04-19T21:21:44.706Z,95643.42
2018-04-19T21:24:11.857Z,95648.34
2018-04-19T21:26:39.249Z,95647.69
2018-04-19T21:29:06.821Z,95655.29
2018-04-19T21:31:34.703Z,95648.09
2018-04-19T21:34:01.803Z,95652.69
2018-04-19T21:36:29.219Z,95655.39
2018-04-19T21:38:56.115Z,95655.08
2018-04-19T21:41:23.006Z,95654.13
2018-04-19T21:43:50.111Z,95648.32
2018-04-19T21:46:17.664Z,95655.16
2018-04-19T21:48:44.362Z,95650.41
2018-04-19T21:51:11.482Z,95645.47
2018-04-19T21:53:39.009Z,95650.67
2018-04-19T21:56:06.354Z,95641.87
2018-04-19T21:58:33.439Z,95639.84
2018-04-19T22:01:00.264Z,95638.53
2018-04-19T22:03:27.280Z,95639.81
2018-04-19T22:05:54.412Z,95641.91
2018-04-19T22:08:21.446Z,95634.92
2018-04-19T22:10:49.469Z,95639.17
2018-04-19T22:13:16.344Z,95645.24
2018-04-19T22:15:43.744Z,95645.34
2018-04-19T22:18:11.630Z,95636.77
2018-04-19T22:20:39.076Z,95635.47
2018-04-19T22:23:06.286Z,95634.52
2018-04-19T22:25:34.718Z,95639.03
2018-04-19T22:28:02.039Z,95634.37
2018-04-19T22:30:29.474Z,95628.69
2018-04-19T22:32:56.548Z,95626.14
2018-04-19T22:35:23.393Z,95629.27
2018-04-19T22:37:51.240Z,95623.99
2018-04-19T22:40:18.615Z,95632.13
2018-04-19T22:42:45.833Z,95629.80
2018-04-19T22:45:13.592Z,95622.02
2018-04-19T22:47:41.625Z,95628.89
2018-04-19T22:50:09.207Z,95624.11
2018-04-19T22:52:36.249Z,95628.87
2018-04-19T22:55:04.585Z,95623.48
2018-04-19T22:57:31.729Z,95626.53
2018-04-19T22:59:58.981Z,95614.98
2018-04-19T23:02:26.177Z,95617.25
2018-04-19T23:04:54.024Z,95618.70
2018-04-19T23:07:27.787Z,95623.66
2018-04-19T23:09:55.544Z,95616.45
2018-04-19T23:12:23.170Z,95611.95
2018-04-19T23:14:50.826Z,95611.11
2018-04-19T23:17:19.162Z,95603.62
2018-04-19T23:19:46.155Z,95606.85
2018-04-19T23:22:13.668Z,95606.25
2018-04-19T23:24:41.614Z,95606.32
2018-04-19T23:27:08.954Z,95604.34
2018-04-19T23:29:36.180Z,95600.83
2018-04-19T23:32:03.681Z,95588.64
2018-04-19T23:34:31.760Z,95591.77
2018-04-19T23:36:59.211Z,95584.81
2018-04-19T23:39:26.499Z,95585.09
2018-04-19T23:41:54.996Z,95581.58
2018-04-19T23:44:22.934Z,95583.21
2018-04-19T23:46:49.968Z,95576.67
2018-04-19T23:49:17.430Z,95583.29
2018-04-19T23:51:45.933Z,95576.03
2018-04-19T23:54:13.355Z,95569.69
2018-04-19T23:56:40.789Z,95569.30
2018-04-19T23:59:07.923Z,95567.08
